Moro, Arkansas
Current Conditions -  °F | °C
As of 10:35 AM on Friday 24 Oct 2014 (Local Time) from KSGT Reporting Station
Clear Clear  
Wind Chill: 63°   Ceiling: Unl
Heat Index: 63°   Visibility: 10mi
Dew Point: 48°   Wind: 0mph
Humidity: 59%   Direction: NA
Pressure: 30.19"   Gusts: NA
Location:  34.8°N, 90.99°W
Report Text: KSGT 241535Z AUTO 00000KT 10SM CLR 17/09 A3019 RMK AO1
Loading
Personal Weather Stations






























Interactive Weather Map
Tropical Storm Tracking
New forecast layout! Learn more

10-Day Weather Forecast

Advertisements
Track Severe Weather on mobile